createdAt,value
2022-10-22T00:00:02.872Z,6.80
2022-10-22T00:02:30.428Z,6.73
2022-10-22T00:04:57.946Z,5.97
2022-10-22T00:07:25.890Z,6.20
2022-10-22T00:09:53.468Z,6.87
2022-10-22T00:12:21.582Z,6.00
2022-10-22T00:14:49.441Z,6.50
2022-10-22T00:17:17.131Z,5.47
2022-10-22T00:19:44.588Z,6.60
2022-10-22T00:22:12.580Z,6.47
2022-10-22T00:24:40.389Z,6.50
2022-10-22T00:27:09.098Z,6.50
2022-10-22T00:29:36.671Z,7.17
2022-10-22T00:32:04.385Z,6.53
2022-10-22T00:34:31.809Z,6.90
2022-10-22T00:36:59.607Z,6.87
2022-10-22T00:39:27.379Z,6.33
2022-10-22T00:41:55.571Z,6.77
2022-10-22T00:44:41.905Z,6.33
2022-10-22T00:47:09.387Z,6.10
2022-10-22T00:49:36.985Z,6.23
2022-10-22T00:52:04.730Z,5.77
2022-10-22T00:54:32.189Z,6.87
2022-10-22T00:56:59.649Z,5.60
2022-10-22T00:59:27.418Z,6.70
2022-10-22T01:01:55.069Z,6.40
2022-10-22T01:04:22.578Z,7.03
2022-10-22T01:06:50.247Z,6.33
2022-10-22T01:09:25.878Z,7.07
2022-10-22T01:12:12.093Z,6.60
2022-10-22T01:14:58.277Z,7.40
2022-10-22T01:17:28.881Z,6.93
2022-10-22T01:20:14.997Z,8.47
2022-10-22T01:22:45.326Z,9.57
2022-10-22T01:25:18.502Z,10.43
2022-10-22T01:28:04.965Z,13.37
2022-10-22T01:30:32.421Z,13.90
2022-10-22T01:33:02.289Z,15.93
2022-10-22T01:38:02.388Z,14.53
2022-10-22T01:40:30.303Z,16.13
2022-10-22T01:43:02.220Z,16.23
2022-10-22T01:45:30.522Z,13.93
2022-10-22T01:48:05.437Z,15.00
2022-10-22T01:50:40.954Z,12.33
2022-10-22T01:53:17.301Z,13.13
2022-10-22T01:55:54.008Z,12.63
2022-10-22T01:58:51.013Z,11.13
2022-10-22T02:01:24.493Z,12.17
2022-10-22T02:03:56.826Z,11.73
2022-10-22T02:06:25.546Z,11.47
2022-10-22T02:08:53.802Z,11.27
2022-10-22T02:11:21.286Z,10.77
2022-10-22T02:13:56.670Z,11.17
2022-10-22T02:16:35.827Z,11.60
2022-10-22T02:19:10.837Z,11.80
2022-10-22T02:21:38.525Z,12.10
2022-10-22T02:24:06.401Z,12.27
2022-10-22T02:26:39.693Z,11.33
2022-10-22T02:29:15.906Z,12.10
2022-10-22T02:31:44.942Z,11.97
2022-10-22T02:34:14.801Z,12.17
2022-10-22T02:36:46.777Z,11.90
2022-10-22T02:41:44.605Z,11.97
2022-10-22T02:44:12.357Z,10.97
2022-10-22T02:46:40.174Z,12.33
2022-10-22T02:49:07.820Z,11.57
2022-10-22T02:51:35.329Z,11.60
2022-10-22T02:54:02.808Z,10.83
2022-10-22T02:56:30.290Z,10.03
2022-10-22T02:58:57.835Z,10.37
2022-10-22T03:01:25.353Z,9.53
2022-10-22T03:03:52.898Z,8.90
2022-10-22T03:06:20.524Z,10.00
2022-10-22T03:08:49.639Z,9.23
2022-10-22T03:11:17.190Z,10.57
2022-10-22T03:13:44.662Z,10.43
2022-10-22T03:16:12.208Z,10.57
2022-10-22T03:18:39.693Z,10.37
2022-10-22T03:21:07.222Z,9.90
2022-10-22T03:23:34.746Z,9.90
2022-10-22T03:26:02.627Z,9.93
2022-10-22T03:28:30.174Z,10.43
2022-10-22T03:30:57.678Z,9.40
2022-10-22T03:33:25.098Z,9.10
2022-10-22T03:35:52.705Z,9.53
2022-10-22T03:38:20.778Z,10.00
2022-10-22T03:40:48.384Z,10.13
2022-10-22T03:43:16.177Z,9.70
2022-10-22T03:45:43.669Z,10.20
2022-10-22T03:48:11.157Z,10.00
2022-10-22T03:50:38.836Z,11.03
2022-10-22T03:53:06.321Z,11.20
2022-10-22T03:55:33.746Z,12.23
2022-10-22T03:58:01.200Z,11.13
2022-10-22T04:00:28.701Z,10.37
2022-10-22T04:02:56.280Z,11.03
2022-10-22T04:05:23.845Z,10.90
2022-10-22T04:07:51.338Z,11.30
2022-10-22T04:10:18.905Z,11.13
2022-10-22T04:12:49.170Z,10.83
2022-10-22T04:15:16.756Z,10.67
2022-10-22T04:17:44.505Z,12.10
2022-10-22T04:20:12.141Z,11.60
2022-10-22T04:22:39.564Z,10.53
2022-10-22T04:25:07.072Z,9.97
2022-10-22T04:27:35.118Z,10.67
2022-10-22T04:30:02.827Z,11.20
2022-10-22T04:32:30.264Z,10.53
2022-10-22T04:34:57.802Z,11.13
2022-10-22T04:37:25.292Z,12.07
2022-10-22T04:39:52.784Z,11.10
2022-10-22T04:42:20.312Z,12.83
2022-10-22T04:44:47.779Z,11.77
2022-10-22T04:47:15.273Z,11.43
2022-10-22T04:49:42.734Z,11.50
2022-10-22T04:52:10.200Z,11.67
2022-10-22T04:54:37.702Z,11.53
2022-10-22T04:57:05.196Z,12.07
2022-10-22T04:59:32.816Z,10.87
2022-10-22T05:02:00.353Z,12.10
2022-10-22T05:04:27.985Z,13.07
2022-10-22T05:06:55.527Z,12.80
2022-10-22T05:09:23.008Z,13.20
2022-10-22T05:11:51.718Z,12.60
2022-10-22T05:14:20.780Z,11.87
2022-10-22T05:16:49.252Z,11.53
2022-10-22T05:19:27.262Z,11.77
2022-10-22T05:21:55.665Z,11.70
2022-10-22T05:24:23.505Z,12.33
2022-10-22T05:26:51.502Z,12.37
2022-10-22T05:29:19.415Z,11.93
2022-10-22T05:31:47.109Z,10.03
2022-10-22T05:34:14.992Z,10.50
2022-10-22T05:36:43.520Z,11.10
2022-10-22T05:39:10.946Z,11.00
2022-10-22T05:41:38.802Z,11.23
2022-10-22T05:44:06.360Z,12.77
2022-10-22T05:46:35.126Z,11.30
2022-10-22T05:49:03.547Z,13.00
2022-10-22T05:51:32.440Z,12.00
2022-10-22T05:54:00.915Z,11.00
2022-10-22T05:56:29.235Z,11.07
2022-10-22T05:58:57.151Z,11.47
2022-10-22T06:01:26.198Z,11.30
2022-10-22T06:03:54.377Z,10.77
2022-10-22T06:06:24.972Z,9.63
2022-10-22T06:08:53.605Z,10.03
2022-10-22T06:11:23.922Z,9.37
2022-10-22T06:13:51.771Z,8.80
2022-10-22T06:16:19.254Z,9.17
2022-10-22T06:18:46.885Z,8.27
2022-10-22T06:21:15.545Z,8.77
2022-10-22T06:26:29.794Z,7.90
2022-10-22T06:28:57.678Z,7.83
2022-10-22T06:31:26.171Z,6.30
2022-10-22T06:33:53.932Z,6.23
2022-10-22T06:36:22.481Z,5.87
2022-10-22T06:38:54.018Z,6.07
2022-10-22T06:41:24.320Z,5.23
2022-10-22T06:43:54.743Z,5.73
2022-10-22T06:46:22.550Z,6.03
2022-10-22T06:48:56.114Z,4.73
2022-10-22T06:51:23.826Z,5.07
2022-10-22T06:53:51.280Z,5.53
2022-10-22T06:56:20.197Z,4.97
2022-10-22T06:58:54.798Z,4.90
2022-10-22T07:01:24.096Z,4.27
2022-10-22T07:03:52.492Z,4.70
2022-10-22T07:06:20.295Z,4.03
2022-10-22T07:08:47.816Z,3.37
2022-10-22T07:11:16.839Z,4.17
2022-10-22T07:13:44.742Z,4.03
2022-10-22T07:16:12.329Z,3.87
2022-10-22T07:18:40.698Z,3.20
2022-10-22T07:21:11.701Z,4.43
2022-10-22T07:23:39.177Z,6.73
2022-10-22T07:26:07.279Z,5.13
2022-10-22T07:28:35.502Z,3.63
2022-10-22T07:31:03.049Z,3.07
2022-10-22T07:33:30.521Z,2.70
2022-10-22T07:35:58.868Z,2.47
2022-10-22T07:38:26.743Z,2.60
2022-10-22T07:40:54.512Z,2.10
2022-10-22T07:43:22.443Z,2.20
2022-10-22T07:45:50.036Z,2.50
2022-10-22T07:48:17.932Z,2.50
2022-10-22T07:50:45.369Z,2.50
2022-10-22T07:53:12.794Z,2.20
2022-10-22T07:55:40.291Z,2.10
2022-10-22T07:58:07.780Z,2.97
2022-10-22T08:00:35.522Z,2.13
2022-10-22T08:03:02.953Z,2.40
2022-10-22T08:05:30.474Z,2.20
2022-10-22T08:07:57.942Z,2.37
2022-10-22T08:10:25.386Z,2.13
2022-10-22T08:12:52.861Z,2.10
2022-10-22T08:15:20.588Z,1.80
2022-10-22T08:17:48.000Z,2.20
2022-10-22T08:20:15.490Z,2.50
2022-10-22T08:22:42.954Z,2.33
2022-10-22T08:25:10.594Z,2.47
2022-10-22T08:27:38.753Z,2.20
2022-10-22T08:30:06.691Z,2.90
2022-10-22T08:32:34.123Z,2.40
2022-10-22T08:35:01.669Z,2.10
2022-10-22T08:37:29.122Z,2.33
2022-10-22T08:39:56.634Z,2.00
2022-10-22T08:42:32.970Z,2.23
2022-10-22T08:45:00.347Z,2.40
2022-10-22T08:47:27.776Z,1.97
2022-10-22T08:49:55.437Z,2.10
2022-10-22T08:52:23.058Z,2.60
2022-10-22T08:54:54.388Z,2.30
2022-10-22T08:57:38.453Z,2.10
2022-10-22T09:00:06.012Z,2.17
2022-10-22T09:02:33.405Z,2.00
2022-10-22T09:05:10.019Z,2.23
2022-10-22T09:07:43.844Z,2.17
2022-10-22T09:10:12.496Z,2.30
2022-10-22T09:12:39.911Z,2.30
2022-10-22T09:15:07.567Z,2.30
2022-10-22T09:17:39.557Z,1.93
2022-10-22T09:20:10.166Z,2.37
2022-10-22T09:22:45.301Z,2.23
2022-10-22T09:25:29.409Z,1.77
2022-10-22T09:27:57.180Z,1.90
2022-10-22T09:30:26.028Z,2.90
2022-10-22T09:33:00.860Z,2.03
2022-10-22T09:35:28.825Z,1.80
2022-10-22T09:37:57.100Z,2.03
2022-10-22T09:40:24.562Z,1.73
2022-10-22T09:42:52.007Z,1.90
2022-10-22T09:45:20.639Z,1.83
2022-10-22T09:48:03.732Z,1.20
2022-10-22T09:50:51.053Z,1.63
2022-10-22T09:53:20.849Z,1.50
2022-10-22T09:58:29.042Z,1.60
2022-10-22T10:00:58.231Z,1.90
2022-10-22T10:03:28.144Z,1.70
2022-10-22T10:06:01.446Z,2.43
2022-10-22T10:08:32.496Z,1.70
2022-10-22T10:11:18.648Z,1.50
2022-10-22T10:14:06.217Z,1.30
2022-10-22T10:16:40.649Z,1.40
2022-10-22T10:19:14.503Z,2.10
2022-10-22T10:21:48.157Z,1.50
2022-10-22T10:24:26.499Z,1.33
2022-10-22T10:26:59.850Z,1.50
2022-10-22T10:29:33.326Z,1.27
2022-10-22T10:32:13.534Z,1.50
2022-10-22T10:34:46.985Z,1.57
2022-10-22T10:37:25.629Z,1.60
2022-10-22T10:39:55.806Z,1.57
2022-10-22T10:42:23.216Z,1.77
2022-10-22T10:44:53.366Z,1.53
2022-10-22T10:47:33.132Z,1.20
2022-10-22T10:50:20.273Z,1.67
2022-10-22T10:53:06.781Z,1.50
2022-10-22T10:55:42.673Z,1.33
2022-10-22T10:58:18.069Z,1.20
2022-10-22T11:00:53.109Z,1.30
2022-10-22T11:03:33.552Z,1.40
2022-10-22T11:06:03.188Z,2.13
2022-10-22T11:08:33.020Z,1.67
2022-10-22T11:11:06.151Z,1.60
2022-10-22T11:13:44.073Z,1.50
2022-10-22T11:16:37.757Z,1.37
2022-10-22T11:19:46.099Z,1.30
2022-10-22T11:22:17.243Z,1.13
2022-10-22T11:24:49.744Z,1.43
2022-10-22T11:27:26.165Z,1.73
2022-10-22T11:29:57.150Z,1.43
2022-10-22T11:32:24.800Z,1.67
2022-10-22T11:34:53.987Z,1.60
2022-10-22T11:37:22.370Z,1.93
2022-10-22T11:39:52.063Z,1.30
2022-10-22T11:42:21.043Z,1.57
2022-10-22T11:44:49.617Z,1.33
2022-10-22T11:47:19.281Z,1.33
2022-10-22T11:49:56.077Z,1.00
2022-10-22T11:52:25.420Z,1.50
2022-10-22T11:55:01.939Z,1.40
2022-10-22T11:57:39.729Z,1.30
2022-10-22T12:00:30.721Z,1.57
2022-10-22T12:03:05.522Z,1.50
2022-10-22T12:05:34.090Z,1.17
2022-10-22T12:08:24.842Z,1.50
2022-10-22T12:11:06.168Z,1.20
2022-10-22T12:13:51.492Z,1.33
2022-10-22T12:16:32.067Z,1.47
2022-10-22T12:19:07.745Z,1.10
2022-10-22T12:21:35.243Z,1.23
2022-10-22T12:24:03.334Z,1.57
2022-10-22T12:26:31.992Z,1.10
2022-10-22T12:28:59.761Z,1.40
2022-10-22T12:31:27.289Z,1.10
2022-10-22T12:34:00.989Z,1.13
2022-10-22T12:36:32.433Z,1.40
2022-10-22T12:39:03.631Z,1.40
2022-10-22T12:41:34.969Z,1.70
2022-10-22T12:44:03.203Z,1.40
2022-10-22T12:46:32.016Z,1.50
2022-10-22T12:49:00.741Z,1.30
2022-10-22T12:51:28.421Z,1.30
2022-10-22T12:53:57.729Z,1.50
2022-10-22T12:56:27.161Z,1.27
2022-10-22T12:59:12.180Z,1.13
2022-10-22T13:01:40.705Z,1.20
2022-10-22T13:04:08.252Z,1.20
2022-10-22T13:06:36.108Z,1.00
2022-10-22T13:09:15.889Z,1.33
2022-10-22T13:11:49.984Z,1.10
2022-10-22T13:14:22.133Z,1.40
2022-10-22T13:17:08.267Z,0.87
2022-10-22T13:19:40.819Z,1.10
2022-10-22T13:22:26.721Z,1.83
2022-10-22T13:24:54.342Z,1.10
2022-10-22T13:27:21.757Z,1.50
2022-10-22T13:29:52.255Z,1.33
2022-10-22T13:32:33.420Z,1.20
2022-10-22T13:35:01.717Z,1.30
2022-10-22T13:37:30.550Z,1.40
2022-10-22T13:39:58.025Z,1.43
2022-10-22T13:42:25.840Z,1.20
2022-10-22T13:44:53.255Z,1.23
2022-10-22T13:47:28.489Z,1.17
2022-10-22T13:49:58.837Z,1.50
2022-10-22T13:52:32.157Z,1.30
2022-10-22T13:54:59.614Z,1.57
2022-10-22T13:57:27.042Z,1.83
2022-10-22T13:59:54.450Z,1.70
2022-10-22T14:02:21.938Z,1.40
2022-10-22T14:04:49.969Z,1.20
2022-10-22T14:07:17.831Z,1.37
2022-10-22T14:09:45.318Z,1.73
2022-10-22T14:12:13.885Z,1.20
2022-10-22T14:14:41.388Z,1.30
2022-10-22T14:17:13.664Z,1.30
2022-10-22T14:19:41.217Z,1.40
2022-10-22T14:22:11.075Z,1.47
2022-10-22T14:24:38.602Z,1.57
2022-10-22T14:27:06.091Z,1.80
2022-10-22T14:29:33.547Z,1.30
2022-10-22T14:32:00.953Z,1.77
2022-10-22T14:34:28.453Z,1.30
2022-10-22T14:36:55.916Z,1.47
2022-10-22T14:39:23.356Z,1.23
2022-10-22T14:41:50.797Z,1.20
2022-10-22T14:44:18.267Z,1.27
2022-10-22T14:46:45.745Z,1.43
2022-10-22T14:49:13.489Z,1.17
2022-10-22T14:51:40.993Z,1.50
2022-10-22T14:54:08.625Z,1.53
2022-10-22T14:59:04.448Z,0.90
2022-10-22T15:01:31.821Z,0.97
2022-10-22T15:03:59.250Z,1.20
2022-10-22T15:06:26.714Z,1.33
2022-10-22T15:08:54.215Z,1.33
2022-10-22T15:11:21.713Z,1.27
2022-10-22T15:13:49.179Z,1.47
2022-10-22T15:16:17.191Z,1.50
2022-10-22T15:18:45.067Z,1.40
2022-10-22T15:21:15.336Z,1.43
2022-10-22T15:23:42.803Z,1.43
2022-10-22T15:26:10.900Z,1.00
2022-10-22T15:28:39.094Z,1.40
2022-10-22T15:31:07.175Z,1.23
2022-10-22T15:33:34.774Z,1.40
2022-10-22T15:36:10.490Z,1.27
2022-10-22T15:38:38.000Z,1.23
2022-10-22T15:41:06.377Z,1.40
2022-10-22T15:43:34.575Z,1.43
2022-10-22T15:46:09.346Z,1.50
2022-10-22T15:48:36.828Z,1.30
2022-10-22T15:51:08.872Z,1.37
2022-10-22T15:53:36.348Z,1.23
2022-10-22T15:56:03.851Z,1.30
2022-10-22T15:58:31.579Z,1.67
2022-10-22T16:01:06.150Z,1.20
2022-10-22T16:03:34.088Z,1.70
2022-10-22T16:06:01.586Z,1.87
2022-10-22T16:08:29.190Z,1.87
2022-10-22T16:10:56.713Z,2.00
2022-10-22T16:13:24.190Z,1.60
2022-10-22T16:15:52.149Z,1.83
2022-10-22T16:18:20.051Z,2.03
2022-10-22T16:20:48.122Z,2.10
2022-10-22T16:23:15.668Z,2.60
2022-10-22T16:25:43.114Z,1.80
2022-10-22T16:28:11.386Z,22.43
2022-10-22T16:30:39.380Z,2.83
2022-10-22T16:33:07.454Z,2.47
2022-10-22T16:35:34.880Z,2.13
2022-10-22T16:38:02.360Z,2.73
2022-10-22T16:40:29.809Z,3.10
2022-10-22T16:42:57.265Z,2.60
2022-10-22T16:45:24.745Z,2.90
2022-10-22T16:47:52.208Z,2.57
2022-10-22T16:50:19.699Z,2.53
2022-10-22T16:52:47.116Z,3.47
2022-10-22T16:55:14.534Z,2.77
2022-10-22T16:57:42.421Z,3.17
2022-10-22T17:00:10.527Z,3.10
2022-10-22T17:02:38.096Z,2.80
2022-10-22T17:05:05.874Z,2.10
2022-10-22T17:07:33.408Z,3.50
2022-10-22T17:10:00.874Z,2.97
2022-10-22T17:12:28.391Z,2.13
2022-10-22T17:14:55.804Z,2.70
2022-10-22T17:17:23.281Z,2.33
2022-10-22T17:19:50.749Z,2.53
2022-10-22T17:22:18.489Z,3.10
2022-10-22T17:24:45.985Z,2.50
2022-10-22T17:27:13.544Z,2.60
2022-10-22T17:29:41.025Z,2.83
2022-10-22T17:32:08.481Z,1.93
2022-10-22T17:34:35.920Z,2.30
2022-10-22T17:37:03.404Z,2.50
2022-10-22T17:39:30.825Z,2.30
2022-10-22T17:41:58.281Z,2.40
2022-10-22T17:44:25.780Z,2.23
2022-10-22T17:46:53.257Z,2.73
2022-10-22T17:49:20.927Z,2.73
2022-10-22T17:51:48.705Z,2.50
2022-10-22T17:54:16.381Z,2.40
2022-10-22T17:56:43.903Z,3.00
2022-10-22T17:59:13.329Z,2.77
2022-10-22T18:01:41.127Z,2.47
2022-10-22T18:04:09.106Z,2.90
2022-10-22T18:06:36.584Z,2.40
2022-10-22T18:09:04.994Z,2.83
2022-10-22T18:11:32.746Z,2.80
2022-10-22T18:14:00.572Z,3.00
2022-10-22T18:16:28.182Z,3.33
2022-10-22T18:18:56.665Z,3.30
2022-10-22T18:21:25.393Z,3.67
2022-10-22T18:23:53.010Z,3.37
2022-10-22T18:26:24.295Z,3.40
2022-10-22T18:28:54.318Z,3.60
2022-10-22T18:31:25.936Z,3.40
2022-10-22T18:36:23.906Z,3.13
2022-10-22T18:38:59.173Z,3.73
2022-10-22T18:41:27.419Z,3.50
2022-10-22T18:43:56.029Z,3.83
2022-10-22T18:46:24.081Z,3.37
2022-10-22T18:48:54.935Z,3.77
2022-10-22T18:51:22.682Z,3.47
2022-10-22T18:54:05.016Z,3.80
2022-10-22T18:56:33.315Z,3.47
2022-10-22T18:59:01.034Z,4.63
2022-10-22T19:01:28.696Z,4.63
2022-10-22T19:03:57.083Z,4.50
2022-10-22T19:06:28.429Z,4.20
2022-10-22T19:08:56.560Z,4.40
2022-10-22T19:11:24.082Z,4.03
2022-10-22T19:13:51.571Z,4.70
2022-10-22T19:16:20.686Z,4.23
2022-10-22T19:18:48.161Z,4.67
2022-10-22T19:21:15.583Z,4.03
2022-10-22T19:23:43.081Z,4.23
2022-10-22T19:26:12.019Z,4.73
2022-10-22T19:28:39.984Z,4.40
2022-10-22T19:31:07.889Z,4.47
2022-10-22T19:33:36.088Z,5.13
2022-10-22T19:36:10.654Z,5.77
2022-10-22T19:38:42.124Z,4.63
2022-10-22T19:41:11.106Z,4.70
2022-10-22T19:43:39.138Z,4.07
2022-10-22T19:46:07.374Z,4.27
2022-10-22T19:48:35.746Z,4.90
2022-10-22T19:51:04.798Z,5.00
2022-10-22T19:53:33.240Z,4.87
2022-10-22T19:56:01.302Z,4.80
2022-10-22T19:58:29.187Z,4.90
2022-10-22T20:00:56.759Z,5.73
2022-10-22T20:03:24.288Z,4.77
2022-10-22T20:05:52.040Z,5.07
2022-10-22T20:08:19.600Z,4.40
2022-10-22T20:10:49.429Z,4.97
2022-10-22T20:13:17.153Z,5.13
2022-10-22T20:15:47.509Z,6.77
2022-10-22T20:18:15.785Z,7.00
2022-10-22T20:20:43.537Z,6.80
2022-10-22T20:23:11.389Z,6.30
2022-10-22T20:25:43.847Z,5.40
2022-10-22T20:28:11.905Z,5.30
2022-10-22T20:30:43.514Z,5.20
2022-10-22T20:33:11.609Z,6.33
2022-10-22T20:35:39.208Z,5.20
2022-10-22T20:38:07.921Z,5.43
2022-10-22T20:40:37.171Z,5.67
2022-10-22T20:43:04.921Z,6.80
2022-10-22T20:45:32.391Z,6.33
2022-10-22T20:48:02.582Z,7.50
2022-10-22T20:50:30.940Z,7.10
2022-10-22T20:52:58.600Z,6.87
2022-10-22T20:55:26.456Z,6.83
2022-10-22T20:57:54.063Z,6.07
2022-10-22T21:00:21.707Z,5.97
2022-10-22T21:02:49.270Z,5.63
2022-10-22T21:05:16.890Z,5.60
2022-10-22T21:07:44.636Z,6.70
2022-10-22T21:10:12.326Z,6.10
2022-10-22T21:12:40.044Z,6.17
2022-10-22T21:15:11.699Z,6.03
2022-10-22T21:17:40.258Z,5.97
2022-10-22T21:20:08.006Z,5.50
2022-10-22T21:22:35.573Z,5.37
2022-10-22T21:25:03.083Z,5.57
2022-10-22T21:27:30.569Z,5.10
2022-10-22T21:29:58.124Z,6.13
2022-10-22T21:32:25.791Z,5.70
2022-10-22T21:34:53.235Z,5.17
2022-10-22T21:37:20.931Z,5.20
2022-10-22T21:39:48.418Z,5.60
2022-10-22T21:42:16.029Z,5.47
2022-10-22T21:44:43.463Z,4.70
2022-10-22T21:47:11.191Z,4.80
2022-10-22T21:49:38.678Z,4.43
2022-10-22T21:52:06.137Z,4.60
2022-10-22T21:54:33.790Z,4.77
2022-10-22T21:57:01.219Z,4.37
2022-10-22T21:59:28.746Z,4.63
2022-10-22T22:01:56.281Z,4.50
2022-10-22T22:04:23.737Z,4.13
2022-10-22T22:06:51.230Z,5.70
2022-10-22T22:09:19.025Z,4.23
2022-10-22T22:11:46.686Z,4.57
2022-10-22T22:14:14.484Z,4.43
2022-10-22T22:16:41.996Z,4.43
2022-10-22T22:19:10.377Z,4.43
2022-10-22T22:21:38.973Z,4.20
2022-10-22T22:24:06.754Z,4.80
2022-10-22T22:26:34.322Z,4.93
2022-10-22T22:29:01.861Z,5.17
2022-10-22T22:31:30.734Z,4.10
2022-10-22T22:34:02.230Z,4.70
2022-10-22T22:36:33.091Z,4.53
2022-10-22T22:39:00.616Z,5.00
2022-10-22T22:41:28.063Z,4.20
2022-10-22T22:46:28.234Z,4.50
2022-10-22T22:48:55.757Z,5.37
2022-10-22T22:51:23.461Z,4.93
2022-10-22T22:53:50.955Z,5.13
2022-10-22T22:56:23.627Z,4.50
2022-10-22T22:58:51.228Z,4.30
2022-10-22T23:01:23.731Z,4.37
2022-10-22T23:04:14.276Z,5.10
2022-10-22T23:06:41.776Z,4.00
2022-10-22T23:09:10.338Z,4.77
2022-10-22T23:11:38.050Z,4.63
2022-10-22T23:14:06.563Z,5.17
2022-10-22T23:16:35.548Z,4.50
2022-10-22T23:19:03.642Z,4.57
2022-10-22T23:21:32.722Z,4.43
2022-10-22T23:24:01.632Z,4.50
2022-10-22T23:26:30.771Z,4.57
2022-10-22T23:29:06.722Z,4.47
2022-10-22T23:31:34.662Z,4.63
2022-10-22T23:34:02.489Z,4.37
2022-10-22T23:36:30.170Z,4.20
2022-10-22T23:38:57.639Z,4.30
2022-10-22T23:41:25.105Z,5.03
2022-10-22T23:43:52.543Z,5.23
2022-10-22T23:46:20.044Z,5.23
2022-10-22T23:48:47.497Z,4.83
2022-10-22T23:51:16.300Z,5.63
2022-10-22T23:53:44.809Z,5.33
2022-10-22T23:56:16.708Z,5.67
2022-10-22T23:58:44.446Z,5.83
